createdAt,value
2024-05-09T00:01:35.353Z,99615.56
2024-05-09T00:06:37.194Z,99613.79
2024-05-09T00:11:38.907Z,99608.84
2024-05-09T00:16:40.655Z,99605.13
2024-05-09T00:21:45.102Z,99604.16
2024-05-09T00:26:46.880Z,99602.29
2024-05-09T00:31:48.766Z,99600.03
2024-05-09T00:36:50.553Z,99598.16
2024-05-09T00:41:52.324Z,99588.28
2024-05-09T00:46:55.309Z,99585.24
2024-05-09T00:51:57.606Z,99581.66
2024-05-09T00:56:59.676Z,99581.58
2024-05-09T01:02:01.389Z,99591.30
2024-05-09T01:07:03.502Z,99595.34
2024-05-09T01:12:05.508Z,99599.95
2024-05-09T01:17:07.594Z,99605.36
2024-05-09T01:22:09.785Z,99606.25
2024-05-09T01:27:11.558Z,99607.08
2024-05-09T01:32:13.527Z,99609.92
2024-05-09T01:37:15.389Z,99611.27
2024-05-09T01:42:17.120Z,99614.88
2024-05-09T01:47:18.800Z,99609.06
2024-05-09T01:52:20.592Z,99612.16
2024-05-09T01:57:22.311Z,99615.87
2024-05-09T02:02:24.214Z,99611.95
2024-05-09T02:07:26.471Z,99613.36
2024-05-09T02:12:28.394Z,99616.85
2024-05-09T02:17:30.368Z,99613.56
2024-05-09T02:22:32.396Z,99610.19
2024-05-09T02:27:34.088Z,99616.38
2024-05-09T02:32:36.046Z,99619.70
2024-05-09T02:37:37.926Z,99622.63
2024-05-09T02:42:39.491Z,99619.47
2024-05-09T02:47:41.246Z,99621.80
2024-05-09T02:52:43.202Z,99615.70
2024-05-09T02:57:45.082Z,99616.33
2024-05-09T03:02:46.789Z,99619.32
2024-05-09T03:07:48.818Z,99622.29
2024-05-09T03:12:50.743Z,99622.38
2024-05-09T03:17:52.701Z,99619.93
2024-05-09T03:22:56.736Z,99618.92
2024-05-09T03:27:59.106Z,99621.89
2024-05-09T03:33:01.162Z,99623.30
2024-05-09T03:38:03.014Z,99622.00
2024-05-09T03:43:04.817Z,99620.11
2024-05-09T03:48:07.459Z,99619.45
2024-05-09T03:53:13.346Z,99618.24
2024-05-09T03:58:15.289Z,99622.58
2024-05-09T04:03:17.122Z,99625.63
2024-05-09T04:08:19.031Z,99628.28
2024-05-09T04:13:21.155Z,99630.98
2024-05-09T04:18:22.974Z,99628.55
2024-05-09T04:23:24.888Z,99627.38
2024-05-09T04:28:26.806Z,99633.33
2024-05-09T04:33:29.476Z,99636.66
2024-05-09T04:38:31.362Z,99643.11
2024-05-09T04:43:35.012Z,99650.34
2024-05-09T04:48:36.766Z,99650.85
2024-05-09T04:53:38.559Z,99650.89
2024-05-09T04:58:40.448Z,99648.88
2024-05-09T05:03:42.682Z,99657.02
2024-05-09T05:08:44.572Z,99660.55
2024-05-09T05:13:46.505Z,99658.72
2024-05-09T05:18:48.221Z,99663.48
2024-05-09T05:23:50.127Z,99668.27
2024-05-09T05:28:51.966Z,99669.27
2024-05-09T05:33:54.029Z,99668.59
2024-05-09T05:38:56.012Z,99665.52
2024-05-09T05:43:57.998Z,99663.47
2024-05-09T05:48:59.835Z,99665.63
2024-05-09T05:54:01.554Z,99669.94
2024-05-09T05:59:03.316Z,99669.73
2024-05-09T06:04:05.213Z,99660.10
2024-05-09T06:09:07.178Z,99662.77
2024-05-09T06:14:09.292Z,99661.36
2024-05-09T06:19:11.211Z,99666.41
2024-05-09T06:24:13.020Z,99663.15
2024-05-09T06:29:14.659Z,99664.08
2024-05-09T06:34:20.737Z,99661.79
2024-05-09T06:39:23.574Z,99662.19
2024-05-09T06:44:25.221Z,99665.91
2024-05-09T06:49:29.278Z,99665.20
2024-05-09T06:54:31.019Z,99660.12
2024-05-09T06:59:32.845Z,99659.02
2024-05-09T07:04:34.808Z,99657.49
2024-05-09T07:09:37.430Z,99655.70
2024-05-09T07:14:39.259Z,99653.98
2024-05-09T07:19:41.624Z,99652.80
2024-05-09T07:24:43.386Z,99652.02
2024-05-09T07:29:45.080Z,99659.12
2024-05-09T07:34:46.809Z,99661.52
2024-05-09T07:39:48.614Z,99657.23
2024-05-09T07:44:50.187Z,99651.98
2024-05-09T07:51:32.767Z,99649.81
2024-05-09T07:55:13.592Z,99646.79
2024-05-09T08:00:20.390Z,99647.75
2024-05-09T08:05:28.781Z,99644.63
2024-05-09T08:10:30.913Z,99645.71
2024-05-09T08:15:32.788Z,99649.38
2024-05-09T08:20:37.890Z,99642.71
2024-05-09T08:25:39.649Z,99644.92
2024-05-09T08:30:41.648Z,99643.27
2024-05-09T08:35:43.392Z,99646.45
2024-05-09T08:40:45.300Z,99645.16
2024-05-09T08:45:49.597Z,99646.99
2024-05-09T08:50:54.855Z,99643.09
2024-05-09T08:56:01.649Z,99646.52
2024-05-09T09:01:07.455Z,99647.63
2024-05-09T09:06:12.546Z,99643.86
2024-05-09T09:11:14.480Z,99648.53
2024-05-09T09:16:16.967Z,99648.75
2024-05-09T09:21:18.763Z,99645.35
2024-05-09T09:26:20.503Z,99641.09
2024-05-09T09:31:22.138Z,99641.03
2024-05-09T09:36:28.070Z,99635.09
2024-05-09T09:41:30.233Z,99631.02
2024-05-09T09:46:32.798Z,99634.55
2024-05-09T09:51:35.781Z,99636.81
2024-05-09T09:56:39.373Z,99636.25
2024-05-09T10:01:43.904Z,99633.55
2024-05-09T10:06:50.327Z,99636.80
2024-05-09T10:11:59.664Z,99639.23
2024-05-09T10:17:05.415Z,99638.45
2024-05-09T10:22:10.961Z,99631.98
2024-05-09T10:27:12.788Z,99633.59
2024-05-09T10:32:16.136Z,99626.44
2024-05-09T10:37:17.943Z,99623.98
2024-05-09T10:42:20.029Z,99615.23
2024-05-09T10:47:22.265Z,99618.53
2024-05-09T10:52:24.973Z,99618.12
2024-05-09T10:57:27.005Z,99611.23
2024-05-09T11:02:29.005Z,99607.48
2024-05-09T11:07:31.162Z,99604.47
2024-05-09T11:12:33.236Z,99604.46
2024-05-09T11:17:37.863Z,99603.77
2024-05-09T11:22:39.608Z,99598.64
2024-05-09T11:27:42.306Z,99594.63
2024-05-09T11:32:44.126Z,99586.39
2024-05-09T11:37:47.482Z,99586.73
2024-05-09T11:42:51.508Z,99589.83
2024-05-09T11:47:54.798Z,99582.49
2024-05-09T11:52:56.527Z,99578.81
2024-05-09T11:57:58.344Z,99584.41
2024-05-09T12:03:00.215Z,99576.80
2024-05-09T12:08:02.415Z,99575.77
2024-05-09T12:13:06.562Z,99569.10
2024-05-09T12:18:09.306Z,99566.14
2024-05-09T12:23:11.275Z,99557.48
2024-05-09T12:28:13.109Z,99549.29
2024-05-09T12:33:15.343Z,99547.52
2024-05-09T12:38:18.173Z,99547.67
2024-05-09T12:43:19.922Z,99546.29
2024-05-09T12:48:21.961Z,99545.66
2024-05-09T12:53:23.902Z,99533.77
2024-05-09T12:58:25.808Z,99524.70
2024-05-09T13:03:27.538Z,99519.82
2024-05-09T13:08:29.260Z,99508.76
2024-05-09T13:13:30.866Z,99500.74
2024-05-09T13:18:33.354Z,99501.73
2024-05-09T13:23:37.825Z,99497.55
2024-05-09T13:28:39.615Z,99499.16
2024-05-09T13:33:41.454Z,99496.84
2024-05-09T13:38:43.317Z,99495.62
2024-05-09T13:43:45.050Z,99487.27
2024-05-09T13:48:46.880Z,99488.08
2024-05-09T13:53:48.771Z,99479.66
2024-05-09T13:58:51.896Z,99474.12
2024-05-09T14:03:53.813Z,99472.81
2024-05-09T14:08:55.719Z,99472.17
2024-05-09T14:13:57.423Z,99467.11
2024-05-09T14:18:59.539Z,99456.98
2024-05-09T14:24:01.481Z,99458.54
2024-05-09T14:29:03.270Z,99457.11
2024-05-09T14:34:05.134Z,99456.59
2024-05-09T14:39:06.942Z,99453.71
2024-05-09T14:44:08.524Z,99452.41
2024-05-09T14:49:12.310Z,99448.30
2024-05-09T14:54:14.458Z,99448.54
2024-05-09T14:59:16.319Z,99447.15
2024-05-09T15:04:18.167Z,99447.41
2024-05-09T15:09:19.923Z,99440.33
2024-05-09T15:14:23.121Z,99439.15
2024-05-09T15:19:24.856Z,99436.45
2024-05-09T15:24:26.661Z,99430.90
2024-05-09T15:29:29.501Z,99427.71
2024-05-09T15:34:31.323Z,99428.52
2024-05-09T15:39:33.262Z,99427.35
2024-05-09T15:44:35.778Z,99429.49
2024-05-09T15:49:37.705Z,99419.90
2024-05-09T15:54:39.717Z,99421.62
2024-05-09T15:59:41.609Z,99424.45
2024-05-09T16:04:43.355Z,99413.15
2024-05-09T16:09:45.378Z,99417.38
2024-05-09T16:14:47.468Z,99415.15
2024-05-09T16:19:49.279Z,99408.16
2024-05-09T16:24:51.171Z,99405.20
2024-05-09T16:29:53.147Z,99403.45
2024-05-09T16:34:54.851Z,99404.73
2024-05-09T16:39:56.580Z,99403.52
2024-05-09T16:44:58.375Z,99401.61
2024-05-09T16:50:00.054Z,99400.25
2024-05-09T16:55:01.985Z,99399.20
2024-05-09T17:00:09.215Z,99398.18
2024-05-09T17:05:14.290Z,99400.58
2024-05-09T17:10:26.402Z,99403.90
2024-05-09T17:15:33.803Z,99402.96
2024-05-09T17:20:37.360Z,99406.48
2024-05-09T17:25:40.015Z,99408.17
2024-05-09T17:30:42.823Z,99409.77
2024-05-09T17:35:45.810Z,99408.23
2024-05-09T17:40:47.775Z,99405.88
2024-05-09T17:45:49.556Z,99410.59
2024-05-09T17:50:51.639Z,99415.04
2024-05-09T17:55:55.686Z,99411.88
2024-05-09T18:00:57.455Z,99419.40
2024-05-09T18:05:59.742Z,99424.36
2024-05-09T18:11:01.682Z,99426.41
2024-05-09T18:16:03.915Z,99426.19
2024-05-09T18:21:05.806Z,99425.73
2024-05-09T18:26:08.629Z,99429.57
2024-05-09T18:31:10.824Z,99430.59
2024-05-09T18:36:12.713Z,99433.82
2024-05-09T18:41:14.706Z,99440.60
2024-05-09T18:46:16.423Z,99445.19
2024-05-09T18:51:18.312Z,99453.11
2024-05-09T18:56:20.280Z,99456.09
2024-05-09T19:01:21.881Z,99472.31
2024-05-09T19:06:24.760Z,99481.15
2024-05-09T19:11:26.583Z,99483.39
2024-05-09T19:16:28.378Z,99485.77
2024-05-09T19:21:30.895Z,99495.30
2024-05-09T19:26:32.652Z,99495.31
2024-05-09T19:31:34.300Z,99499.70
2024-05-09T19:36:36.170Z,99502.02
2024-05-09T19:41:37.981Z,99503.90
2024-05-09T19:46:39.730Z,99509.39
2024-05-09T19:51:41.644Z,99506.48
2024-05-09T19:56:45.181Z,99505.00
2024-05-09T20:01:48.061Z,99508.27
2024-05-09T20:06:50.605Z,99512.48
2024-05-09T20:11:52.328Z,99515.01
2024-05-09T20:16:54.127Z,99519.44
2024-05-09T20:21:55.902Z,99523.88
2024-05-09T20:26:57.561Z,99523.04
2024-05-09T20:31:59.197Z,99523.63
2024-05-09T20:37:00.873Z,99521.48
2024-05-09T20:42:02.689Z,99526.66
2024-05-09T20:47:04.517Z,99523.13
2024-05-09T20:52:06.512Z,99526.23
2024-05-09T20:57:08.205Z,99529.77
2024-05-09T21:02:10.203Z,99527.94
2024-05-09T21:07:11.997Z,99526.48
2024-05-09T21:12:13.710Z,99524.03
2024-05-09T21:17:15.515Z,99522.52
2024-05-09T21:22:17.382Z,99527.15
2024-05-09T21:27:19.252Z,99528.02
2024-05-09T21:32:21.230Z,99527.52
2024-05-09T21:37:23.226Z,99527.33
2024-05-09T21:42:25.280Z,99525.98
2024-05-09T21:47:27.056Z,99526.25
2024-05-09T21:52:29.219Z,99521.29
2024-05-09T21:57:30.809Z,99519.96
2024-05-09T22:02:32.559Z,99519.16
2024-05-09T22:07:34.252Z,99525.41
2024-05-09T22:12:35.965Z,99524.76
2024-05-09T22:17:40.917Z,99520.95
2024-05-09T22:22:42.765Z,99521.52
2024-05-09T22:27:44.366Z,99523.39
2024-05-09T22:32:46.220Z,99518.43
2024-05-09T22:37:47.928Z,99518.84
2024-05-09T22:42:49.759Z,99517.66
2024-05-09T22:47:51.483Z,99523.26
2024-05-09T22:52:53.200Z,99517.83
2024-05-09T22:57:54.916Z,99520.44
2024-05-09T23:02:56.724Z,99525.09
2024-05-09T23:07:58.481Z,99519.56
2024-05-09T23:13:00.246Z,99511.63
2024-05-09T23:18:02.395Z,99509.80
2024-05-09T23:23:07.178Z,99512.64
2024-05-09T23:28:10.633Z,99507.15
2024-05-09T23:33:13.624Z,99504.23
2024-05-09T23:38:15.989Z,99506.50
2024-05-09T23:43:18.694Z,99507.98
2024-05-09T23:48:20.606Z,99503.35
2024-05-09T23:53:22.465Z,99498.36
2024-05-09T23:58:25.911Z,99498.56
